Time;durP1;ratioP1;P1;durP2;ratioP2;P2;SDS_P1;SDS_P2;PMS_P1;PMS_P2;Temp;Humidity;BMP_temperature;BMP_pressure;BME280_temperature;BME280_humidity;BME280_pressure;Samples;Min_cycle;Max_cycle;Signal;HPM_P1;HPM_P2
2024/03/10 00:01:59;;;;;;;4.90;3.77;;;10.60;99.90;;;;;;5063495;28;20224;-57
2024/03/10 00:04:26;;;;;;;4.87;3.50;;;10.70;99.90;;;;;;5063348;28;20213;-56
2024/03/10 00:06:53;;;;;;;4.43;3.17;;;10.60;99.90;;;;;;5065739;28;20733;-57
2024/03/10 00:09:21;;;;;;;4.87;3.60;;;10.70;99.90;;;;;;5066585;28;20621;-56
2024/03/10 00:11:47;;;;;;;4.10;3.43;;;10.70;99.90;;;;;;5065063;28;20596;-55
2024/03/10 00:14:16;;;;;;;4.37;3.60;;;10.80;99.90;;;;;;5062915;28;20740;-56
2024/03/10 00:16:43;;;;;;;5.30;4.17;;;10.90;99.90;;;;;;5064079;28;20267;-55
2024/03/10 00:19:11;;;;;;;5.03;3.70;;;10.90;99.90;;;;;;5066721;28;20197;-55
2024/03/10 00:21:38;;;;;;;4.20;3.80;;;10.90;99.90;;;;;;5066121;28;20228;-55
2024/03/10 00:24:07;;;;;;;3.87;3.30;;;10.90;99.90;;;;;;5062826;28;20224;-55
2024/03/10 00:26:35;;;;;;;4.60;3.60;;;10.80;99.90;;;;;;5063083;28;20260;-56
2024/03/10 00:29:02;;;;;;;4.67;3.80;;;10.70;99.90;;;;;;5066686;28;20216;-56
2024/03/10 00:31:30;;;;;;;4.00;3.60;;;10.70;99.90;;;;;;5066564;28;20232;-56
2024/03/10 00:33:57;;;;;;;5.87;3.30;;;10.60;99.90;;;;;;5063233;28;20200;-55
2024/03/10 00:36:23;;;;;;;3.83;3.33;;;10.60;99.90;;;;;;5062579;28;20705;-56
2024/03/10 00:38:51;;;;;;;6.47;3.33;;;10.60;99.90;;;;;;5064533;28;20205;-56
2024/03/10 00:41:18;;;;;;;5.23;3.93;;;10.60;99.90;;;;;;5066248;28;20220;-56
2024/03/10 00:43:46;;;;;;;4.30;3.13;;;10.60;99.90;;;;;;5065119;28;20221;-55
2024/03/10 00:46:13;;;;;;;5.00;3.37;;;10.50;99.90;;;;;;5063050;28;20209;-55
2024/03/10 00:48:40;;;;;;;3.63;3.20;;;10.50;99.90;;;;;;5062917;28;20209;-55
2024/03/10 00:51:07;;;;;;;6.20;3.67;;;10.50;99.90;;;;;;5065685;28;20205;-56
2024/03/10 00:53:34;;;;;;;6.00;3.80;;;10.50;99.90;;;;;;5065713;28;20689;-55
2024/03/10 00:56:02;;;;;;;6.03;3.70;;;10.50;99.90;;;;;;5062770;28;20297;-56
2024/03/10 00:58:28;;;;;;;3.80;3.33;;;10.60;99.90;;;;;;5061545;28;20733;-56
2024/03/10 01:00:56;;;;;;;5.13;3.53;;;10.60;99.90;;;;;;5064720;28;20205;-55
2024/03/10 01:03:23;;;;;;;5.23;3.40;;;10.60;99.90;;;;;;5065516;28;20229;-55
2024/03/10 01:05:51;;;;;;;5.43;3.70;;;10.60;99.90;;;;;;5064171;28;20630;-55
2024/03/10 01:08:18;;;;;;;4.63;3.70;;;10.70;99.90;;;;;;5062342;28;20251;-55
2024/03/10 01:10:46;;;;;;;4.67;3.10;;;10.70;99.90;;;;;;5062972;28;20213;-56
2024/03/10 01:13:15;;;;;;;4.17;3.57;;;10.60;99.90;;;;;;5065187;28;20221;-56
2024/03/10 01:15:42;;;;;;;5.20;3.33;;;10.60;99.90;;;;;;5064925;28;20216;-55
2024/03/10 01:18:10;;;;;;;5.13;3.43;;;10.70;99.90;;;;;;5062039;28;20197;-55
2024/03/10 01:20:36;;;;;;;4.20;3.30;;;10.70;99.90;;;;;;5062115;28;20248;-55
2024/03/10 01:23:04;;;;;;;3.80;3.20;;;10.70;99.90;;;;;;5065001;28;20694;-55
2024/03/10 01:25:31;;;;;;;3.67;2.77;;;10.70;99.90;;;;;;5065447;28;20201;-55
2024/03/10 01:27:58;;;;;;;3.50;2.90;;;10.70;99.90;;;;;;5062453;28;20236;-56
2024/03/10 01:30:25;;;;;;;4.03;3.00;;;10.70;99.90;;;;;;5061787;28;20205;-56
2024/03/10 01:32:52;;;;;;;3.77;3.20;;;10.70;99.90;;;;;;5063155;28;20246;-56
2024/03/10 01:35:21;;;;;;;4.43;3.40;;;10.60;99.90;;;;;;5065002;28;20292;-56
2024/03/10 01:37:48;;;;;;;3.77;3.10;;;10.60;99.90;;;;;;5063911;28;20201;-56
2024/03/10 01:40:14;;;;;;;3.50;3.10;;;10.60;99.90;;;;;;5061593;28;20240;-56
2024/03/10 01:42:41;;;;;;;3.60;2.90;;;10.60;99.90;;;;;;5061641;28;20233;-56
2024/03/10 01:45:09;;;;;;;5.60;2.97;;;10.60;99.90;;;;;;5064582;28;20270;-56
2024/03/10 01:47:35;;;;;;;3.93;3.20;;;10.60;99.90;;;;;;5065151;28;20236;-56
2024/03/10 01:50:06;;;;;;;4.23;3.00;;;10.60;99.90;;;;;;5061626;28;20671;-55
2024/03/10 01:52:34;;;;;;;3.77;2.97;;;10.60;99.90;;;;;;5061275;28;20251;-56
2024/03/10 01:55:01;;;;;;;4.13;2.87;;;10.50;99.90;;;;;;5063899;28;20203;-56
2024/03/10 01:57:28;;;;;;;3.63;2.90;;;10.50;99.90;;;;;;5064762;28;20253;-56
2024/03/10 01:59:57;;;;;;;3.73;2.80;;;10.40;99.90;;;;;;5062719;28;20247;-55
2024/03/10 02:02:24;;;;;;;5.70;2.60;;;10.40;99.90;;;;;;5061234;28;20282;-55
2024/03/10 02:04:50;;;;;;;3.47;2.80;;;10.50;99.90;;;;;;5062059;28;20225;-56
2024/03/10 02:07:17;;;;;;;4.50;2.77;;;10.50;99.90;;;;;;5064673;28;20629;-56
2024/03/10 02:09:46;;;;;;;3.53;2.67;;;10.50;99.90;;;;;;5063604;28;20212;-57
2024/03/10 02:12:12;;;;;;;3.47;2.47;;;10.50;99.90;;;;;;5060603;28;20225;-55
2024/03/10 02:14:40;;;;;;;3.53;2.57;;;10.50;99.90;;;;;;5060869;28;20293;-55
2024/03/10 02:17:10;;;;;;;3.43;2.47;;;10.50;99.90;;;;;;5053254;28;20209;-55
2024/03/10 02:19:37;;;;;;;3.43;2.60;;;10.50;99.90;;;;;;5060812;28;20205;-55
2024/03/10 02:22:07;;;;;;;4.27;2.60;;;10.50;99.90;;;;;;5064182;28;20220;-56
2024/03/10 02:24:43;;;;;;;2.70;2.20;;;10.50;99.90;;;;;;5064031;28;20293;-56
2024/03/10 02:27:16;;;;;;;4.00;2.33;;;10.50;99.90;;;;;;5053183;28;20644;-55
2024/03/10 02:29:59;;;;;;;3.47;2.47;;;10.60;99.90;;;;;;5060901;28;20209;-56
2024/03/10 02:48:54;;;;;;;2.77;2.30;;;10.70;99.90;;;;;;5062025;28;20216;-55
2024/03/10 02:51:21;;;;;;;3.70;2.27;;;10.80;99.90;;;;;;5063895;28;20259;-55
2024/03/10 02:53:48;;;;;;;2.67;2.30;;;10.80;99.90;;;;;;5063031;28;20215;-55
2024/03/10 02:56:14;;;;;;;3.70;2.60;;;10.80;99.90;;;;;;5060206;28;20668;-55
2024/03/10 02:58:42;;;;;;;3.90;2.30;;;10.80;99.90;;;;;;5060405;28;20232;-56
2024/03/10 03:01:10;;;;;;;2.70;2.30;;;10.90;99.90;;;;;;5052223;28;20734;-56
2024/03/10 03:03:37;;;;;;;2.63;2.23;;;10.80;99.90;;;;;;5059868;28;20253;-56
2024/03/10 03:06:04;;;;;;;2.87;2.30;;;10.80;99.90;;;;;;5063009;28;20208;-55
2024/03/10 03:08:31;;;;;;;2.37;2.13;;;10.80;99.90;;;;;;5063378;28;20200;-55
2024/03/10 03:10:57;;;;;;;3.20;2.20;;;10.90;99.90;;;;;;5061775;28;20217;-56
2024/03/10 03:13:24;;;;;;;5.27;2.30;;;10.90;99.90;;;;;;5059966;28;20202;-55
2024/03/10 03:15:52;;;;;;;2.40;2.17;;;10.90;99.90;;;;;;5061356;28;20213;-56
2024/03/10 03:18:18;;;;;;;3.00;2.27;;;10.90;99.90;;;;;;5063894;28;20211;-56
2024/03/10 03:20:45;;;;;;;2.40;2.20;;;10.90;99.90;;;;;;5064321;28;20200;-56
2024/03/10 03:23:12;;;;;;;4.50;2.10;;;10.90;99.90;;;;;;5063624;28;20646;-56
2024/03/10 03:25:40;;;;;;;2.73;2.20;;;10.90;99.90;;;;;;5063979;28;20585;-56
2024/03/10 03:28:06;;;;;;;2.87;2.20;;;10.80;99.90;;;;;;5067358;28;20196;-56
2024/03/10 03:30:33;;;;;;;2.87;2.00;;;10.70;99.90;;;;;;5067594;28;20295;-55
2024/03/10 03:33:01;;;;;;;3.33;2.20;;;10.70;99.90;;;;;;5065086;28;20353;-56
2024/03/10 03:35:28;;;;;;;3.87;2.40;;;10.60;99.90;;;;;;5063845;28;20508;-57
2024/03/10 03:37:55;;;;;;;2.50;2.10;;;10.50;99.90;;;;;;5065878;28;20271;-55
2024/03/10 03:40:23;;;;;;;2.33;2.13;;;10.50;99.90;;;;;;5067298;28;20331;-56
2024/03/10 03:42:49;;;;;;;2.50;2.13;;;10.50;99.90;;;;;;5066213;28;20270;-55
2024/03/10 03:45:16;;;;;;;2.37;2.00;;;10.40;99.90;;;;;;5063506;28;20217;-55
2024/03/10 03:47:44;;;;;;;2.23;2.03;;;10.30;99.90;;;;;;5064128;28;20237;-55
2024/03/10 03:50:12;;;;;;;2.90;2.30;;;10.30;99.90;;;;;;5067178;28;20197;-55
2024/03/10 03:52:39;;;;;;;3.40;2.20;;;10.30;99.90;;;;;;5067310;28;20286;-55
2024/03/10 03:55:06;;;;;;;4.13;2.20;;;10.30;99.90;;;;;;5064055;28;20209;-53
2024/03/10 03:57:33;;;;;;;4.40;2.00;;;10.20;99.90;;;;;;5064008;28;20565;-55
2024/03/10 03:59:59;;;;;;;3.03;1.93;;;10.20;99.90;;;;;;5065857;28;20565;-54
2024/03/10 04:02:26;;;;;;;2.60;2.17;;;10.20;99.90;;;;;;5067199;28;20233;-54
2024/03/10 04:04:53;;;;;;;2.47;2.07;;;10.20;99.90;;;;;;5065074;28;20319;-53
2024/03/10 04:07:21;;;;;;;2.57;1.90;;;10.10;99.90;;;;;;5063576;28;20216;-53
2024/03/10 04:09:48;;;;;;;2.70;2.20;;;10.10;99.90;;;;;;5064061;28;20225;-53
2024/03/10 04:12:15;;;;;;;2.50;1.87;;;10.00;99.90;;;;;;5066772;28;20301;-53
2024/03/10 04:14:41;;;;;;;2.47;2.03;;;10.00;99.90;;;;;;5067042;28;20227;-55
2024/03/10 04:17:08;;;;;;;2.83;1.90;;;9.90;99.90;;;;;;5063365;28;20241;-53
2024/03/10 04:19:35;;;;;;;3.30;1.73;;;9.90;99.90;;;;;;5063209;28;20599;-53
2024/03/10 04:22:02;;;;;;;4.13;2.17;;;9.90;99.90;;;;;;5065615;28;20272;-53
2024/03/10 04:24:31;;;;;;;2.00;1.83;;;9.90;99.90;;;;;;5060301;28;20221;-54
2024/03/10 04:26:58;;;;;;;4.37;2.03;;;9.80;99.90;;;;;;5064972;28;20260;-53
2024/03/10 04:29:24;;;;;;;2.97;1.80;;;9.70;99.90;;;;;;5066767;28;20231;-53
2024/03/10 04:31:52;;;;;;;2.00;1.60;;;9.70;99.90;;;;;;5065354;28;20623;-52
2024/03/10 04:34:19;;;;;;;2.97;2.00;;;9.70;99.90;;;;;;5063677;28;20258;-53
2024/03/10 04:36:46;;;;;;;3.70;2.10;;;9.60;99.90;;;;;;5064066;28;20671;-53
2024/03/10 04:39:13;;;;;;;2.93;1.80;;;9.60;99.90;;;;;;5066326;28;20197;-54
2024/03/10 04:41:41;;;;;;;3.47;1.90;;;9.50;99.90;;;;;;5066281;28;20224;-54
2024/03/10 04:44:08;;;;;;;2.13;1.90;;;9.60;99.90;;;;;;5062608;28;20218;-56
2024/03/10 04:46:35;;;;;;;2.57;1.90;;;9.60;99.90;;;;;;5062713;28;20244;-54
2024/03/10 04:49:01;;;;;;;2.80;2.00;;;9.70;99.90;;;;;;5071114;28;20205;-55
2024/03/10 04:51:27;;;;;;;2.33;1.90;;;9.70;99.90;;;;;;5062345;28;20747;-53
2024/03/10 04:53:54;;;;;;;2.10;1.90;;;9.60;99.90;;;;;;5062407;28;20224;-55
2024/03/10 04:56:21;;;;;;;3.87;2.17;;;9.60;99.90;;;;;;5065483;28;20623;-53
2024/03/10 04:58:50;;;;;;;2.20;1.87;;;9.60;99.90;;;;;;5064768;28;20209;-54
2024/03/10 05:01:19;;;;;;;2.03;1.83;;;9.60;99.90;;;;;;5061712;28;20752;-54
2024/03/10 05:03:46;;;;;;;2.53;1.80;;;9.60;99.90;;;;;;5061079;28;20201;-56
2024/03/10 05:06:12;;;;;;;4.00;2.20;;;9.70;99.90;;;;;;5064604;28;20574;-53
2024/03/10 05:08:39;;;;;;;4.83;1.70;;;9.70;99.90;;;;;;5064489;28;20671;-53
2024/03/10 05:11:05;;;;;;;2.73;2.20;;;9.60;99.90;;;;;;5061443;28;20212;-53
2024/03/10 05:13:35;;;;;;;3.00;2.03;;;9.60;99.90;;;;;;5060817;28;20213;-54
2024/03/10 05:16:04;;;;;;;2.37;2.03;;;9.60;99.90;;;;;;5063398;28;20289;-53
2024/03/10 05:18:31;;;;;;;3.67;1.70;;;9.70;99.90;;;;;;5064518;28;20209;-54
2024/03/10 05:20:58;;;;;;;2.23;1.80;;;9.70;99.90;;;;;;5062911;28;20295;-54
2024/03/10 05:23:25;;;;;;;8.70;2.10;;;9.70;99.90;;;;;;5060902;28;20206;-54
2024/03/10 05:25:52;;;;;;;2.20;1.70;;;9.70;99.90;;;;;;5061403;28;20711;-53
2024/03/10 05:28:18;;;;;;;2.40;1.80;;;9.70;99.90;;;;;;5064338;28;20205;-55
2024/03/10 05:30:44;;;;;;;2.50;1.80;;;9.70;99.90;;;;;;5064403;28;20236;-53
2024/03/10 05:33:12;;;;;;;2.90;2.00;;;9.70;99.90;;;;;;5063978;28;20701;-53
2024/03/10 05:35:39;;;;;;;2.77;1.70;;;9.70;99.90;;;;;;5064133;28;20209;-53
2024/03/10 05:38:06;;;;;;;2.23;2.03;;;9.70;99.90;;;;;;5061345;28;20209;-53
2024/03/10 05:40:33;;;;;;;2.27;1.80;;;9.70;99.90;;;;;;5060491;28;20563;-52
2024/03/10 05:42:59;;;;;;;2.73;2.00;;;9.60;99.90;;;;;;5061661;28;20240;-53
2024/03/10 05:45:26;;;;;;;3.00;1.83;;;9.50;99.90;;;;;;5063902;28;20225;-53
2024/03/10 05:47:53;;;;;;;2.23;1.90;;;9.50;99.90;;;;;;5063150;28;20566;-54
2024/03/10 05:50:22;;;;;;;2.87;1.83;;;9.50;99.90;;;;;;5060590;28;20229;-53
2024/03/10 05:52:49;;;;;;;2.53;1.80;;;9.50;99.90;;;;;;5034880;28;257030;-56
2024/03/10 05:55:16;;;;;;;3.93;2.13;;;9.50;99.90;;;;;;5063973;28;20228;-53
2024/03/10 05:57:42;;;;;;;2.10;1.90;;;9.40;99.90;;;;;;5064654;28;20205;-53
2024/03/10 06:00:14;;;;;;;3.10;1.70;;;9.40;99.90;;;;;;5061699;28;20223;-55
2024/03/10 06:02:41;;;;;;;2.73;1.80;;;9.50;99.90;;;;;;5061206;28;20283;-53
2024/03/10 06:05:08;;;;;;;2.20;1.80;;;9.50;99.90;;;;;;5063755;28;20311;-54
2024/03/10 06:07:36;;;;;;;2.53;1.77;;;9.50;99.90;;;;;;5064732;28;20640;-53
2024/03/10 06:10:05;;;;;;;2.10;1.63;;;9.60;99.90;;;;;;5062160;28;20212;-53
2024/03/10 06:12:32;;;;;;;2.30;1.80;;;9.50;99.90;;;;;;5060852;28;20244;-54
2024/03/10 06:14:59;;;;;;;2.20;1.80;;;9.50;99.90;;;;;;5062089;28;20201;-53
2024/03/10 06:17:30;;;;;;;2.33;1.90;;;9.50;99.90;;;;;;5064378;28;20212;-54
2024/03/10 06:25:28;;;;;;;3.57;1.80;;;9.70;99.90;;;;;;5054233;28;20639;-53
2024/03/10 06:27:56;;;;;;;3.30;2.20;;;9.70;99.90;;;;;;5061953;28;20210;-53
2024/03/10 06:30:23;;;;;;;2.47;2.23;;;9.70;99.90;;;;;;5064287;28;20205;-52
2024/03/10 06:32:50;;;;;;;2.53;1.80;;;9.70;99.90;;;;;;5063566;28;20229;-53
2024/03/10 06:35:17;;;;;;;2.37;2.10;;;9.80;99.90;;;;;;5060537;28;20236;-55
2024/03/10 06:37:47;;;;;;;3.17;2.40;;;9.80;99.90;;;;;;5060546;28;20202;-56
2024/03/10 06:40:15;;;;;;;3.93;1.93;;;9.80;99.90;;;;;;5052699;28;20202;-54
2024/03/10 06:42:42;;;;;;;2.97;1.90;;;9.80;99.90;;;;;;5060330;28;20225;-54
2024/03/10 06:45:09;;;;;;;4.07;2.57;;;9.90;99.90;;;;;;5062696;28;20225;-54
2024/03/10 06:47:36;;;;;;;2.80;2.20;;;9.90;99.90;;;;;;5064027;28;20346;-54
2024/03/10 06:50:04;;;;;;;3.00;2.10;;;9.90;99.90;;;;;;5061795;28;20213;-54
2024/03/10 06:52:32;;;;;;;4.90;2.10;;;10.00;99.90;;;;;;5059947;28;20237;-53
2024/03/10 06:55:00;;;;;;;2.40;2.10;;;10.10;99.90;;;;;;5059874;28;20622;-53
2024/03/10 06:57:27;;;;;;;3.57;2.10;;;10.20;99.90;;;;;;5059898;28;20243;-54
2024/03/10 06:59:54;;;;;;;2.63;2.20;;;10.30;99.90;;;;;;5060414;28;20763;-54
2024/03/10 07:02:22;;;;;;;3.40;2.10;;;10.40;99.90;;;;;;5063455;28;20253;-55
2024/03/10 07:04:49;;;;;;;2.10;1.90;;;10.50;99.90;;;;;;5063073;28;20764;-54
2024/03/10 07:07:16;;;;;;;4.17;2.53;;;10.50;99.90;;;;;;5052312;28;20675;-53
2024/03/10 07:09:43;;;;;;;2.73;1.90;;;10.60;99.90;;;;;;5059950;28;20214;-54
2024/03/10 07:12:11;;;;;;;2.37;1.80;;;10.70;99.90;;;;;;5062437;28;20282;-53
2024/03/10 07:14:38;;;;;;;2.93;2.60;;;10.70;99.90;;;;;;5063362;28;20208;-54
2024/03/10 07:17:05;;;;;;;2.53;1.90;;;10.80;99.90;;;;;;5060974;28;20560;-54
2024/03/10 07:19:32;;;;;;;2.97;2.00;;;10.70;99.90;;;;;;5059914;28;20258;-53
2024/03/10 07:21:59;;;;;;;2.73;1.97;;;10.80;99.90;;;;;;5060947;28;20225;-55
2024/03/10 07:24:25;;;;;;;2.13;1.93;;;10.70;99.90;;;;;;5062894;28;20211;-53
2024/03/10 07:26:52;;;;;;;2.50;2.30;;;10.80;99.90;;;;;;5062553;28;20263;-53
2024/03/10 07:29:20;;;;;;;3.00;2.50;;;10.80;99.90;;;;;;5059955;28;20236;-55
2024/03/10 07:31:48;;;;;;;3.77;2.77;;;10.60;99.90;;;;;;5059638;28;20229;-54
2024/03/10 07:34:14;;;;;;;3.33;2.50;;;10.70;99.90;;;;;;5059293;28;20296;-53
2024/03/10 07:36:41;;;;;;;4.27;3.13;;;10.70;99.90;;;;;;5060376;28;20698;-54
2024/03/10 07:39:10;;;;;;;3.63;2.93;;;10.80;99.90;;;;;;5061999;28;20201;-53
2024/03/10 07:41:36;;;;;;;5.20;3.70;;;10.90;99.90;;;;;;5063097;28;20830;-52
2024/03/10 07:44:03;;;;;;;4.07;2.93;;;10.90;99.90;;;;;;5060890;28;20204;-53
2024/03/10 07:46:31;;;;;;;4.43;3.00;;;10.90;99.90;;;;;;5059532;28;20716;-53
2024/03/10 07:49:00;;;;;;;4.33;3.10;;;11.00;99.90;;;;;;5060507;28;20221;-52
2024/03/10 07:51:28;;;;;;;8.70;6.20;;;11.10;99.90;;;;;;5063802;28;20246;-54
2024/03/10 07:53:55;;;;;;;10.07;6.73;;;11.20;99.90;;;;;;5062698;28;20262;-52
2024/03/10 07:56:22;;;;;;;5.33;3.70;;;11.30;99.90;;;;;;5060432;28;20255;-53
2024/03/10 07:58:48;;;;;;;8.97;5.07;;;11.50;99.90;;;;;;5059843;28;20586;-52
2024/03/10 08:01:15;;;;;;;7.03;4.17;;;11.60;99.90;;;;;;5062585;28;20610;-53
2024/03/10 08:03:43;;;;;;;4.70;3.80;;;11.80;99.90;;;;;;5062469;28;20205;-55
2024/03/10 08:06:10;;;;;;;5.83;3.30;;;11.90;99.90;;;;;;5060254;28;20682;-54
2024/03/10 08:08:37;;;;;;;3.30;2.90;;;12.10;99.90;;;;;;5062922;28;20711;-53
2024/03/10 08:11:04;;;;;;;3.33;2.63;;;12.20;99.90;;;;;;5064532;28;20288;-55
2024/03/10 08:13:31;;;;;;;2.53;2.23;;;12.30;99.90;;;;;;5066261;28;20291;-53
2024/03/10 08:15:59;;;;;;;2.77;2.20;;;12.50;99.90;;;;;;5065410;28;20231;-54
2024/03/10 08:18:25;;;;;;;2.40;2.20;;;12.60;99.90;;;;;;5062806;28;20205;-53
2024/03/10 08:20:54;;;;;;;5.37;2.30;;;12.80;99.90;;;;;;5062566;28;20209;-53
2024/03/10 08:23:20;;;;;;;2.87;2.40;;;13.00;99.90;;;;;;5066118;28;20317;-54
2024/03/10 08:25:48;;;;;;;2.93;2.17;;;13.30;99.90;;;;;;5066019;28;20311;-53
2024/03/10 08:28:15;;;;;;;2.50;1.97;;;13.50;99.90;;;;;;5062755;28;20307;-53
2024/03/10 08:30:42;;;;;;;2.70;2.43;;;13.60;99.90;;;;;;5062349;28;20745;-57
2024/03/10 08:33:09;;;;;;;2.83;2.30;;;13.70;99.80;;;;;;5064525;28;20700;-57
2024/03/10 08:35:37;;;;;;;2.70;1.97;;;13.80;99.90;;;;;;5065589;28;20560;-57
2024/03/10 08:38:06;;;;;;;4.60;3.60;;;13.70;99.90;;;;;;5064055;28;20209;-55
2024/03/10 08:40:34;;;;;;;3.97;2.93;;;13.40;99.90;;;;;;5062358;28;20237;-55
2024/03/10 08:43:01;;;;;;;4.00;2.90;;;13.00;99.90;;;;;;5063136;28;20225;-54
2024/03/10 08:45:28;;;;;;;4.73;3.60;;;12.60;99.90;;;;;;5065099;28;20228;-55
2024/03/10 08:47:55;;;;;;;3.73;2.67;;;12.50;99.90;;;;;;5064992;28;20205;-53
2024/03/10 08:50:22;;;;;;;2.10;1.90;;;12.90;99.90;;;;;;5062217;28;20218;-53
2024/03/10 08:52:48;;;;;;;4.47;1.90;;;13.40;99.90;;;;;;5061727;28;20241;-55
2024/03/10 08:55:19;;;;;;;3.17;2.37;;;13.70;99.90;;;;;;5065085;28;20209;-54
2024/03/10 08:57:45;;;;;;;3.03;2.30;;;14.10;99.90;;;;;;5065719;28;20288;-54
2024/03/10 09:00:14;;;;;;;3.33;2.30;;;14.50;99.90;;;;;;5062784;28;20209;-55
2024/03/10 09:02:41;;;;;;;3.63;2.90;;;14.80;99.90;;;;;;5061737;28;20651;-55
2024/03/10 09:05:08;;;;;;;3.20;2.27;;;15.10;99.90;;;;;;5063724;28;20218;-54
2024/03/10 09:07:35;;;;;;;71.80;58.90;;;15.20;98.90;;;;;;5065459;28;20229;-55
2024/03/10 09:10:04;;;;;;;4.80;3.10;;;15.30;99.30;;;;;;5064017;28;20211;-53
2024/03/10 09:12:32;;;;;;;3.07;1.60;;;15.40;99.10;;;;;;5061613;28;20226;-54
2024/03/10 09:14:59;;;;;;;3.73;1.43;;;15.30;98.70;;;;;;5059978;28;20288;-54
2024/03/10 09:17:26;;;;;;;1.93;1.63;;;15.20;98.70;;;;;;5060100;28;20206;-52
2024/03/10 09:19:53;;;;;;;2.70;1.57;;;15.20;98.60;;;;;;5060865;28;20674;-58
2024/03/10 09:22:20;;;;;;;2.00;1.58;;;15.30;98.70;;;;;;5053124;28;20762;-60
2024/03/10 09:24:48;;;;;;;2.53;2.10;;;15.50;98.40;;;;;;5061288;28;20209;-60
2024/03/10 09:27:16;;;;;;;2.45;1.98;;;15.80;98.20;;;;;;5064110;28;20225;-59
2024/03/10 09:29:46;;;;;;;2.22;1.80;;;16.00;97.60;;;;;;5064758;28;20628;-61
2024/03/10 09:32:15;;;;;;;2.78;2.30;;;16.30;96.70;;;;;;5061968;28;20228;-62
2024/03/10 09:34:42;;;;;;;2.20;1.77;;;16.40;96.40;;;;;;5060792;28;20206;-60
2024/03/10 09:37:09;;;;;;;3.65;1.80;;;16.60;96.30;;;;;;5063251;28;20663;-61
2024/03/10 09:39:35;;;;;;;2.95;2.00;;;16.60;96.40;;;;;;5064655;28;20731;-61
2024/03/10 09:42:03;;;;;;;3.70;2.13;;;16.80;96.40;;;;;;5063186;28;20655;-60
2024/03/10 09:44:32;;;;;;;1.92;1.60;;;16.90;95.70;;;;;;5060748;28;20205;-60
2024/03/10 09:47:00;;;;;;;1.52;1.42;;;16.90;94.90;;;;;;5061549;28;20222;-60
2024/03/10 09:49:27;;;;;;;3.05;1.40;;;16.60;94.90;;;;;;5064534;28;20209;-62
2024/03/10 09:51:56;;;;;;;2.22;1.70;;;16.60;95.00;;;;;;5064325;28;20574;-62
2024/03/10 09:54:23;;;;;;;2.10;1.60;;;16.70;94.80;;;;;;5053190;28;20293;-60
2024/03/10 09:56:51;;;;;;;2.67;1.63;;;17.00;94.60;;;;;;5060800;28;20206;-61
2024/03/10 09:59:24;;;;;;;1.40;1.30;;;17.20;94.40;;;;;;5063950;28;20283;-59
2024/03/10 10:01:53;;;;;;;1.63;1.30;;;17.50;94.10;;;;;;5064223;28;20231;-62
2024/03/10 10:04:25;;;;;;;1.70;1.60;;;17.70;93.40;;;;;;5052480;28;20205;-58
2024/03/10 10:06:53;;;;;;;2.45;1.70;;;17.20;93.90;;;;;;5060664;28;20221;-63
2024/03/10 10:09:26;;;;;;;2.83;2.25;;;16.90;94.30;;;;;;5052347;28;20208;-61
2024/03/10 10:11:56;;;;;;;2.65;1.80;;;16.80;94.80;;;;;;5060313;28;20581;-61
2024/03/10 10:14:23;;;;;;;1.60;1.50;;;16.90;94.60;;;;;;5052714;28;20237;-62
2024/03/10 10:16:55;;;;;;;1.60;1.50;;;17.00;94.30;;;;;;5060550;28;20671;-62
2024/03/10 10:19:25;;;;;;;1.58;1.33;;;17.30;94.10;;;;;;5052536;28;20213;-62
2024/03/10 10:21:52;;;;;;;4.47;1.50;;;17.50;93.70;;;;;;5060143;28;20221;-62
2024/03/10 10:24:20;;;;;;;1.50;1.10;;;17.60;93.50;;;;;;5063594;28;20201;-59
2024/03/10 10:26:58;;;;;;;1.42;1.10;;;17.50;93.70;;;;;;5063940;28;20309;-62
2024/03/10 10:29:26;;;;;;;2.53;1.60;;;17.50;93.90;;;;;;5052872;28;20202;-63
2024/03/10 10:31:56;;;;;;;2.70;1.23;;;17.50;94.10;;;;;;5059792;28;20228;-63
2024/03/10 10:34:24;;;;;;;1.50;1.30;;;17.30;94.20;;;;;;5051729;28;20721;-62
2024/03/10 10:36:54;;;;;;;2.17;1.67;;;17.30;94.20;;;;;;5060447;28;20206;-62
2024/03/10 10:39:26;;;;;;;1.63;1.40;;;17.40;93.90;;;;;;5052227;28;20236;-62
2024/03/10 10:41:52;;;;;;;2.13;1.80;;;17.50;93.20;;;;;;5060040;28;20248;-61
2024/03/10 10:44:19;;;;;;;2.95;1.80;;;17.60;93.50;;;;;;5062710;28;20209;-61
2024/03/10 10:46:47;;;;;;;2.55;1.95;;;17.70;93.40;;;;;;5063050;28;20608;-61
2024/03/10 10:49:16;;;;;;;2.00;1.40;;;17.80;93.10;;;;;;5061092;28;20208;-63
2024/03/10 10:51:47;;;;;;;2.20;1.48;;;17.80;93.20;;;;;;5059625;28;20239;-62
2024/03/10 10:54:14;;;;;;;2.50;1.92;;;17.70;92.80;;;;;;5058063;28;20217;-62
2024/03/10 10:56:41;;;;;;;3.58;1.50;;;17.40;93.10;;;;;;5041398;28;20202;-64
2024/03/10 10:59:11;;;;;;;1.65;1.25;;;17.30;92.50;;;;;;5051024;28;20205;-60
2024/03/10 11:01:39;;;;;;;1.52;1.40;;;17.30;92.40;;;;;;5051365;28;20225;-60
2024/03/10 11:04:11;;;;;;;1.65;1.20;;;17.40;92.10;;;;;;5051219;28;20247;-64
2024/03/10 11:06:38;;;;;;;1.55;1.27;;;17.40;92.10;;;;;;5059239;28;20379;-54
2024/03/10 11:09:14;;;;;;;2.63;1.20;;;17.40;92.10;;;;;;5052751;28;20217;-54
2024/03/10 11:11:51;;;;;;;1.20;0.77;;;17.40;91.90;;;;;;5063610;28;20719;-54
2024/03/10 11:14:21;;;;;;;1.65;1.10;;;17.30;92.10;;;;;;5060370;28;20197;-54
2024/03/10 11:16:48;;;;;;;1.15;0.90;;;17.20;92.30;;;;;;5059961;28;20206;-55
2024/03/10 11:19:17;;;;;;;1.20;1.10;;;17.10;92.50;;;;;;5062259;28;20216;-54
2024/03/10 11:21:47;;;;;;;1.67;1.30;;;17.00;92.50;;;;;;5063261;28;20227;-54
2024/03/10 11:24:25;;;;;;;1.73;1.10;;;16.80;92.80;;;;;;5060590;28;20686;-55
2024/03/10 11:27:10;;;;;;;1.95;1.20;;;16.80;92.80;;;;;;5059480;28;20303;-54
2024/03/10 11:29:38;;;;;;;1.52;1.20;;;16.70;93.00;;;;;;5053613;28;20263;-55
2024/03/10 11:32:30;;;;;;;1.08;0.98;;;16.70;93.00;;;;;;5059368;28;20229;-54
2024/03/10 11:34:59;;;;;;;2.10;1.45;;;16.70;93.10;;;;;;5059589;28;20216;-56
2024/03/10 11:37:26;;;;;;;1.65;1.20;;;16.80;93.20;;;;;;5062886;28;20205;-54
2024/03/10 11:39:54;;;;;;;2.22;1.00;;;16.70;93.00;;;;;;5062879;28;20209;-57
2024/03/10 11:42:21;;;;;;;1.92;1.40;;;16.60;92.90;;;;;;5061943;28;20225;-57
2024/03/10 11:44:48;;;;;;;2.67;1.40;;;16.50;93.30;;;;;;5063283;28;20746;-57
2024/03/10 11:47:15;;;;;;;2.10;1.30;;;16.50;93.30;;;;;;5065880;28;20228;-57
2024/03/10 11:49:45;;;;;;;5.80;1.30;;;16.50;93.30;;;;;;5067143;28;20205;-57
2024/03/10 11:52:15;;;;;;;1.70;1.30;;;16.50;93.50;;;;;;5064975;28;20232;-57
2024/03/10 11:54:42;;;;;;;1.87;1.30;;;16.60;93.60;;;;;;5063186;28;20671;-58
2024/03/10 11:57:11;;;;;;;4.60;1.33;;;16.70;93.60;;;;;;5064590;28;20209;-57
2024/03/10 11:59:37;;;;;;;1.63;1.38;;;16.80;93.70;;;;;;5066608;28;20244;-58
2024/03/10 12:02:05;;;;;;;3.05;1.35;;;17.00;93.70;;;;;;5065616;28;20274;-57
2024/03/10 12:04:32;;;;;;;1.38;1.10;;;17.10;93.70;;;;;;5062790;28;20773;-57
2024/03/10 12:06:59;;;;;;;6.25;2.78;;;17.20;93.60;;;;;;5062922;28;20218;-58
2024/03/10 12:09:26;;;;;;;1.80;1.30;;;17.40;93.50;;;;;;5066636;28;20208;-57
2024/03/10 12:11:53;;;;;;;1.40;1.20;;;17.50;93.30;;;;;;5066250;28;20225;-57
2024/03/10 12:14:21;;;;;;;2.22;1.58;;;17.70;93.20;;;;;;5066015;28;20209;-58
2024/03/10 12:16:48;;;;;;;1.73;1.63;;;17.90;92.90;;;;;;5066593;28;20267;-57
2024/03/10 12:19:16;;;;;;;1.63;1.30;;;18.00;92.70;;;;;;5064079;28;20728;-57
2024/03/10 12:21:45;;;;;;;1.58;1.20;;;18.00;92.80;;;;;;5062836;28;20340;-57
2024/03/10 12:24:13;;;;;;;1.60;1.15;;;18.10;92.50;;;;;;5064121;28;20212;-57
2024/03/10 12:26:39;;;;;;;2.63;1.30;;;18.20;92.50;;;;;;5066334;28;20274;-58
2024/03/10 12:29:07;;;;;;;2.42;1.08;;;18.20;92.20;;;;;;5065036;28;20201;-56
2024/03/10 12:31:38;;;;;;;2.28;1.40;;;18.20;92.20;;;;;;5062641;28;20308;-56
2024/03/10 12:34:07;;;;;;;1.60;1.38;;;18.10;92.40;;;;;;5063027;28;20558;-56
2024/03/10 12:36:35;;;;;;;1.10;1.00;;;18.00;92.40;;;;;;5066056;28;20208;-58
2024/03/10 12:39:06;;;;;;;3.30;1.20;;;17.90;92.60;;;;;;5065656;28;20205;-56
2024/03/10 12:41:32;;;;;;;1.67;1.15;;;17.70;92.80;;;;;;5062330;28;20253;-59
2024/03/10 12:43:59;;;;;;;1.58;1.25;;;17.60;93.20;;;;;;5062409;28;20209;-57
2024/03/10 12:46:27;;;;;;;1.65;1.42;;;17.50;93.40;;;;;;5065911;28;20220;-57
2024/03/10 12:48:55;;;;;;;1.33;1.20;;;17.40;93.10;;;;;;5066817;28;20256;-57
2024/03/10 12:51:21;;;;;;;2.30;1.10;;;17.40;93.10;;;;;;5065211;28;20286;-57
2024/03/10 12:53:49;;;;;;;1.25;0.90;;;17.30;93.30;;;;;;5065399;28;20196;-57
2024/03/10 12:56:16;;;;;;;1.27;1.10;;;17.30;93.40;;;;;;5063309;28;20274;-57
2024/03/10 12:58:43;;;;;;;1.90;1.35;;;17.30;93.50;;;;;;5068326;28;20212;-57
2024/03/10 13:01:10;;;;;;;1.63;1.30;;;17.40;93.30;;;;;;5063985;28;20257;-58
2024/03/10 13:03:37;;;;;;;2.30;1.40;;;17.50;93.30;;;;;;5062069;28;20198;-58
2024/03/10 13:06:05;;;;;;;4.30;1.63;;;17.60;93.20;;;;;;5062479;28;20638;-56
2024/03/10 13:08:32;;;;;;;2.00;1.10;;;17.80;93.20;;;;;;5065489;28;20208;-57
2024/03/10 13:10:59;;;;;;;2.00;1.20;;;18.10;93.00;;;;;;5065629;28;20200;-57
2024/03/10 13:13:26;;;;;;;1.52;1.27;;;18.30;92.90;;;;;;5053491;28;20762;-57